Time;durP1;ratioP1;P1;durP2;ratioP2;P2;SDS_P1;SDS_P2;PMS_P1;PMS_P2;Temp;Humidity;BMP_temperature;BMP_pressure;BME280_temperature;BME280_humidity;BME280_pressure;Samples;Min_cycle;Max_cycle;Signal;HPM_P1;HPM_P2
2023/05/17 00:02:25;;;;;;;4.63;2.35;;;;;;;;;;5053136;28;20060;-58
2023/05/17 00:04:52;;;;;;;3.15;1.90;;;;;;;;;;5053120;28;20056;-59
2023/05/17 00:07:19;;;;;;;5.57;2.42;;;;;;;;;;5053390;28;20064;-60
2023/05/17 00:09:45;;;;;;;4.75;2.65;;;;;;;;;;5053215;28;20056;-59
2023/05/17 00:12:12;;;;;;;5.13;2.30;;;;;;;;;;5052856;28;20053;-59
2023/05/17 00:14:39;;;;;;;5.95;2.33;;;;;;;;;;5053191;28;20052;-58
2023/05/17 00:17:07;;;;;;;6.43;2.00;;;;;;;;;;5052686;28;20063;-58
2023/05/17 00:19:34;;;;;;;4.72;2.10;;;;;;;;;;5052905;28;20060;-58
2023/05/17 00:22:01;;;;;;;6.18;2.25;;;;;;;;;;5052748;28;20056;-59
2023/05/17 00:24:28;;;;;;;6.05;2.38;;;;;;;;;;5053119;28;20056;-58
2023/05/17 00:26:55;;;;;;;4.22;2.13;;;;;;;;;;5051939;28;20057;-59
2023/05/17 00:29:22;;;;;;;4.22;2.10;;;;;;;;;;5052611;28;20045;-58
2023/05/17 00:31:48;;;;;;;4.45;2.10;;;;;;;;;;5052836;28;20048;-59
2023/05/17 00:34:17;;;;;;;5.75;2.53;;;;;;;;;;5052752;28;20482;-58
2023/05/17 00:36:43;;;;;;;6.60;2.20;;;;;;;;;;5052885;28;20052;-59
2023/05/17 00:39:10;;;;;;;6.30;2.30;;;;;;;;;;5052972;28;20053;-59
2023/05/17 00:41:37;;;;;;;5.65;2.10;;;;;;;;;;5052476;28;20071;-58
2023/05/17 00:44:07;;;;;;;4.22;2.40;;;;;;;;;;5052911;28;20059;-58
2023/05/17 00:46:33;;;;;;;5.13;2.50;;;;;;;;;;5051906;28;20053;-58
2023/05/17 00:49:00;;;;;;;3.05;2.20;;;;;;;;;;5052820;28;20052;-58
2023/05/17 00:51:29;;;;;;;4.63;2.25;;;;;;;;;;5052429;28;20052;-58
2023/05/17 00:53:55;;;;;;;5.57;2.33;;;;;;;;;;5052749;28;20056;-58
2023/05/17 00:56:25;;;;;;;3.65;2.25;;;;;;;;;;5052273;28;20057;-58
2023/05/17 00:58:53;;;;;;;5.15;2.20;;;;;;;;;;5055879;28;20060;-59
2023/05/17 01:01:20;;;;;;;4.43;2.50;;;;;;;;;;5052528;28;20056;-60
2023/05/17 01:03:47;;;;;;;7.68;2.70;;;;;;;;;;5052694;28;20053;-60
2023/05/17 01:06:14;;;;;;;5.43;2.60;;;;;;;;;;5052338;28;20053;-59
2023/05/17 01:08:42;;;;;;;5.47;2.38;;;;;;;;;;5052540;28;20052;-60
2023/05/17 01:11:14;;;;;;;5.60;2.78;;;;;;;;;;5052388;28;20394;-60
2023/05/17 01:13:42;;;;;;;6.45;2.83;;;;;;;;;;5052327;28;20057;-60
2023/05/17 01:16:10;;;;;;;5.25;2.80;;;;;;;;;;5052452;28;20056;-60
2023/05/17 01:18:39;;;;;;;4.75;2.95;;;;;;;;;;5052657;28;20390;-59
2023/05/17 01:21:12;;;;;;;7.40;2.65;;;;;;;;;;5052484;28;20425;-60
2023/05/17 01:23:45;;;;;;;5.25;2.65;;;;;;;;;;5052138;28;20065;-60
2023/05/17 01:26:14;;;;;;;4.55;2.60;;;;;;;;;;5052406;28;20076;-60
2023/05/17 01:28:41;;;;;;;;;;;;;;;;;;5053029;28;20059;-60
2023/05/17 01:31:11;;;;;;;6.30;2.70;;;;;;;;;;5052454;28;19925;-59
2023/05/17 01:33:38;;;;;;;5.55;3.03;;;;;;;;;;5052355;28;20064;-60
2023/05/17 01:36:05;;;;;;;6.15;3.65;;;;;;;;;;5052355;28;20406;-60
2023/05/17 01:38:32;;;;;;;6.15;3.30;;;;;;;;;;5051961;28;20064;-59
2023/05/17 01:41:01;;;;;;;7.30;2.90;;;;;;;;;;5052241;28;20402;-60
2023/05/17 01:43:31;;;;;;;6.53;2.80;;;;;;;;;;5052363;28;20056;-60
2023/05/17 01:46:02;;;;;;;7.60;2.95;;;;;;;;;;5051961;28;20056;-60
2023/05/17 01:48:34;;;;;;;7.22;2.90;;;;;;;;;;5052309;28;20052;-60
2023/05/17 01:51:02;;;;;;;4.50;2.92;;;;;;;;;;5052062;28;20505;-59
2023/05/17 01:53:30;;;;;;;6.32;3.28;;;;;;;;;;5051407;28;20057;-59
2023/05/17 01:56:03;;;;;;;4.82;2.67;;;;;;;;;;5052126;28;20052;-60
2023/05/17 01:58:30;;;;;;;8.00;3.17;;;;;;;;;;5054894;28;20055;-59
2023/05/17 02:01:00;;;;;;;7.05;3.25;;;;;;;;;;5055473;28;20049;-60
2023/05/17 02:03:27;;;;;;;;;;;;;;;;;;5056410;28;20060;-60
2023/05/17 02:05:58;;;;;;;8.68;3.28;;;;;;;;;;5055755;28;20297;-59
2023/05/17 02:08:25;;;;;;;6.03;3.20;;;;;;;;;;5055678;28;20493;-60
2023/05/17 02:10:52;;;;;;;5.43;3.00;;;;;;;;;;5055445;28;20059;-60
2023/05/17 02:13:18;;;;;;;6.28;3.05;;;;;;;;;;5055308;28;20057;-60
2023/05/17 02:15:47;;;;;;;5.45;2.95;;;;;;;;;;5055462;28;20053;-60
2023/05/17 02:18:14;;;;;;;8.70;3.47;;;;;;;;;;5055338;28;20053;-59
2023/05/17 02:20:40;;;;;;;8.32;3.60;;;;;;;;;;5055064;28;20065;-60
2023/05/17 02:23:09;;;;;;;7.65;2.95;;;;;;;;;;5055459;28;20425;-60
2023/05/17 02:25:35;;;;;;;7.78;3.40;;;;;;;;;;5055256;28;20054;-60
2023/05/17 02:28:02;;;;;;;7.25;3.40;;;;;;;;;;5055141;28;20053;-60
2023/05/17 02:30:29;;;;;;;9.00;3.08;;;;;;;;;;5055182;28;20053;-60
2023/05/17 02:32:56;;;;;;;7.00;3.38;;;;;;;;;;5055114;28;20053;-60
2023/05/17 02:35:23;;;;;;;10.05;3.30;;;;;;;;;;5054810;28;20049;-60
2023/05/17 02:37:50;;;;;;;6.50;2.95;;;;;;;;;;5055028;28;20060;-60
2023/05/17 02:40:19;;;;;;;8.10;2.72;;;;;;;;;;5055002;28;20057;-60
2023/05/17 02:42:45;;;;;;;5.70;3.13;;;;;;;;;;5054798;28;20056;-60
2023/05/17 02:45:15;;;;;;;6.57;2.95;;;;;;;;;;5054599;28;20057;-60
2023/05/17 02:47:42;;;;;;;9.80;3.85;;;;;;;;;;5054523;28;20406;-60
2023/05/17 02:50:09;;;;;;;6.70;3.13;;;;;;;;;;5054540;28;20064;-60
2023/05/17 02:52:36;;;;;;;7.63;4.03;;;;;;;;;;5054437;28;20528;-60
2023/05/17 02:55:03;;;;;;;9.50;4.10;;;;;;;;;;5054367;28;20056;-60
2023/05/17 02:57:31;;;;;;;6.55;3.95;;;;;;;;;;5054612;28;20064;-60
2023/05/17 02:59:58;;;;;;;6.07;3.97;;;;;;;;;;5054365;28;20065;-60
2023/05/17 03:02:28;;;;;;;8.63;4.03;;;;;;;;;;5055056;28;20060;-60
2023/05/17 03:04:55;;;;;;;;;;;;;;;;;;5054791;28;20422;-60
2023/05/17 03:07:25;;;;;;;10.10;4.78;;;;;;;;;;5054400;28;19921;-60
2023/05/17 03:09:51;;;;;;;9.10;4.65;;;;;;;;;;5053074;28;20063;-60
2023/05/17 03:12:18;;;;;;;9.75;4.90;;;;;;;;;;5053983;28;20394;-60
2023/05/17 03:14:46;;;;;;;9.20;4.90;;;;;;;;;;5054303;28;20055;-60
2023/05/17 03:17:13;;;;;;;10.77;4.22;;;;;;;;;;5054224;28;20053;-60
2023/05/17 03:19:40;;;;;;;8.27;4.05;;;;;;;;;;5054228;28;20459;-60
2023/05/17 03:22:07;;;;;;;9.10;4.53;;;;;;;;;;5054089;28;20501;-60
2023/05/17 03:24:34;;;;;;;9.32;4.40;;;;;;;;;;5054193;28;20060;-60
2023/05/17 03:27:00;;;;;;;7.28;4.07;;;;;;;;;;5053672;28;20079;-60
2023/05/17 03:29:27;;;;;;;6.85;3.90;;;;;;;;;;5053744;28;20391;-60
2023/05/17 03:31:56;;;;;;;8.38;4.18;;;;;;;;;;5053803;28;20059;-59
2023/05/17 03:34:22;;;;;;;7.22;4.53;;;;;;;;;;5053615;28;20057;-60
2023/05/17 03:36:49;;;;;;;9.02;4.43;;;;;;;;;;5053473;28;20080;-59
2023/05/17 03:39:18;;;;;;;10.18;4.70;;;;;;;;;;5053530;28;20060;-60
2023/05/17 03:41:45;;;;;;;8.33;4.23;;;;;;;;;;5053902;28;20053;-60
2023/05/17 03:44:12;;;;;;;8.27;4.85;;;;;;;;;;5053618;28;20057;-60
2023/05/17 03:46:39;;;;;;;7.90;4.30;;;;;;;;;;5053317;28;20053;-60
2023/05/17 03:49:07;;;;;;;11.85;4.90;;;;;;;;;;5053808;28;20079;-60
2023/05/17 03:51:34;;;;;;;11.27;4.60;;;;;;;;;;5053489;28;20088;-60
2023/05/17 03:54:01;;;;;;;10.35;4.97;;;;;;;;;;5053665;28;20057;-60
2023/05/17 03:56:27;;;;;;;8.40;5.05;;;;;;;;;;5053267;28;20485;-60
2023/05/17 03:58:54;;;;;;;7.43;4.30;;;;;;;;;;5053675;28;20049;-60
2023/05/17 04:01:21;;;;;;;9.52;5.38;;;;;;;;;;5053460;28;20053;-60
2023/05/17 04:03:48;;;;;;;10.00;5.35;;;;;;;;;;5053538;28;20060;-65
2023/05/17 04:06:16;;;;;;;10.77;5.25;;;;;;;;;;5053351;28;20135;-60
2023/05/17 04:08:43;;;;;;;9.35;5.60;;;;;;;;;;5053659;28;20055;-61
2023/05/17 04:11:12;;;;;;;10.35;5.57;;;;;;;;;;5052940;28;20053;-60
2023/05/17 04:13:39;;;;;;;8.60;5.50;;;;;;;;;;5052546;28;20441;-60
2023/05/17 04:16:06;;;;;;;10.07;4.93;;;;;;;;;;5052865;28;20056;-60
2023/05/17 04:18:34;;;;;;;11.18;5.00;;;;;;;;;;5053292;28;20052;-59
2023/05/17 04:21:01;;;;;;;10.50;5.53;;;;;;;;;;5052989;28;20057;-60
2023/05/17 04:23:31;;;;;;;8.75;5.20;;;;;;;;;;5052999;28;20049;-59
2023/05/17 04:25:58;;;;;;;10.50;5.50;;;;;;;;;;5053098;28;20072;-59
2023/05/17 04:28:26;;;;;;;15.32;6.13;;;;;;;;;;5052985;28;20060;-60
2023/05/17 04:30:53;;;;;;;9.23;5.70;;;;;;;;;;5053019;28;20060;-60
2023/05/17 04:33:19;;;;;;;12.88;6.20;;;;;;;;;;5052865;28;20045;-60
2023/05/17 04:35:46;;;;;;;23.23;11.00;;;;;;;;;;5052872;28;20406;-59
2023/05/17 04:38:18;;;;;;;19.55;9.27;;;;;;;;;;5053142;28;20397;-60
2023/05/17 04:40:49;;;;;;;12.43;5.60;;;;;;;;;;5052519;28;20506;-59
2023/05/17 04:43:15;;;;;;;13.13;6.03;;;;;;;;;;5053008;28;20053;-60
2023/05/17 04:45:44;;;;;;;10.52;5.90;;;;;;;;;;5052455;28;20057;-60
2023/05/17 04:48:11;;;;;;;9.27;5.38;;;;;;;;;;5052901;28;20056;-60
2023/05/17 04:50:38;;;;;;;11.02;5.65;;;;;;;;;;5052411;28;20053;-60
2023/05/17 04:53:05;;;;;;;13.75;5.63;;;;;;;;;;5052402;28;20075;-60
2023/05/17 04:55:32;;;;;;;12.43;6.05;;;;;;;;;;5052464;28;20053;-60
2023/05/17 04:58:00;;;;;;;11.10;5.85;;;;;;;;;;5052391;28;20064;-60
2023/05/17 05:00:27;;;;;;;16.17;7.30;;;;;;;;;;5052267;28;20053;-60
2023/05/17 05:02:53;;;;;;;12.52;5.82;;;;;;;;;;5052512;28;20053;-60
2023/05/17 05:05:20;;;;;;;13.60;6.80;;;;;;;;;;5052431;28;20060;-60
2023/05/17 05:07:47;;;;;;;17.50;6.80;;;;;;;;;;5052488;28;20497;-60
2023/05/17 05:10:14;;;;;;;12.57;6.18;;;;;;;;;;5051946;28;20053;-60
2023/05/17 05:12:41;;;;;;;12.38;6.40;;;;;;;;;;5052141;28;20053;-60
2023/05/17 05:15:11;;;;;;;12.35;5.80;;;;;;;;;;5052142;28;20520;-59
2023/05/17 05:17:38;;;;;;;14.30;6.25;;;;;;;;;;5051970;28;20057;-60
2023/05/17 05:20:05;;;;;;;16.25;5.35;;;;;;;;;;5052223;28;20052;-59
2023/05/17 05:22:32;;;;;;;9.77;5.57;;;;;;;;;;5052222;28;20045;-60
2023/05/17 05:24:59;;;;;;;14.73;5.85;;;;;;;;;;5051946;28;20502;-60
2023/05/17 05:27:26;;;;;;;12.63;6.47;;;;;;;;;;5051952;28;20052;-60
2023/05/17 05:29:53;;;;;;;15.75;6.43;;;;;;;;;;5049634;28;20426;-60
2023/05/17 05:32:22;;;;;;;13.07;5.80;;;;;;;;;;5057598;28;20048;-60
2023/05/17 05:34:48;;;;;;;10.80;5.20;;;;;;;;;;5070224;28;20044;-60
2023/05/17 05:37:15;;;;;;;13.65;5.50;;;;;;;;;;5056295;28;20055;-59
2023/05/17 05:39:42;;;;;;;13.43;5.43;;;;;;;;;;5061935;28;20052;-60
2023/05/17 05:42:09;;;;;;;14.60;6.00;;;;;;;;;;5056384;28;20057;-59
2023/05/17 05:44:36;;;;;;;12.77;5.63;;;;;;;;;;5056073;28;20414;-60
2023/05/17 05:47:03;;;;;;;12.63;5.03;;;;;;;;;;5065493;28;20049;-59
2023/05/17 05:49:31;;;;;;;11.32;5.00;;;;;;;;;;5064611;28;20485;-59
2023/05/17 05:51:58;;;;;;;13.48;4.82;;;;;;;;;;5063509;28;20512;-58
2023/05/17 05:54:25;;;;;;;9.60;4.57;;;;;;;;;;5066067;28;20064;-60
2023/05/17 05:56:52;;;;;;;12.93;4.35;;;;;;;;;;5055588;28;20059;-59
2023/05/17 05:59:19;;;;;;;13.35;4.20;;;;;;;;;;5072316;28;20048;-60
2023/05/17 06:01:46;;;;;;;9.60;3.80;;;;;;;;;;5075543;28;20130;-60
2023/05/17 06:04:13;;;;;;;11.85;4.18;;;;;;;;;;5068704;28;20103;-60
2023/05/17 06:06:41;;;;;;;9.57;4.05;;;;;;;;;;5066046;28;20052;-60
2023/05/17 06:09:11;;;;;;;13.38;3.97;;;;;;;;;;5075710;28;20056;-60
2023/05/17 06:11:37;;;;;;;11.43;4.25;;;;;;;;;;5073967;28;20053;-59
2023/05/17 06:14:04;;;;;;;11.63;3.90;;;;;;;;;;5068759;28;20071;-60
2023/05/17 06:16:31;;;;;;;12.15;4.38;;;;;;;;;;5064156;28;20067;-59
2023/05/17 06:18:58;;;;;;;9.90;3.72;;;;;;;;;;5064431;28;20525;-59
2023/05/17 06:21:25;;;;;;;10.18;3.53;;;;;;;;;;5054940;28;20159;-59
2023/05/17 06:23:53;;;;;;;16.00;5.25;;;;;;;;;;5053812;28;20045;-60
2023/05/17 06:26:20;;;;;;;10.35;4.03;;;;;;;;;;5054671;28;20058;-59
2023/05/17 06:28:46;;;;;;;13.27;4.60;;;;;;;;;;5065456;28;20053;-59
2023/05/17 06:31:13;;;;;;;14.20;3.80;;;;;;;;;;5059327;28;20071;-60
2023/05/17 06:33:40;;;;;;;11.32;3.22;;;;;;;;;;5057725;28;20056;-59
2023/05/17 06:36:07;;;;;;;11.63;3.63;;;;;;;;;;5062800;28;20045;-59
2023/05/17 06:38:34;;;;;;;11.07;3.78;;;;;;;;;;5063289;28;20052;-60
2023/05/17 06:41:02;;;;;;;10.43;3.80;;;;;;;;;;5059209;28;20045;-60
2023/05/17 06:43:29;;;;;;;11.65;3.60;;;;;;;;;;5065024;28;20063;-60
2023/05/17 06:45:56;;;;;;;9.15;3.33;;;;;;;;;;5066273;28;20055;-59
2023/05/17 06:48:23;;;;;;;12.23;3.58;;;;;;;;;;5057442;28;20053;-60
2023/05/17 06:50:49;;;;;;;8.52;3.22;;;;;;;;;;5065566;28;20052;-47
2023/05/17 06:53:16;;;;;;;12.07;3.40;;;;;;;;;;5068504;28;20052;-47
2023/05/17 06:55:43;;;;;;;13.27;3.80;;;;;;;;;;5057272;28;20045;-46
2023/05/17 06:58:11;;;;;;;10.30;3.83;;;;;;;;;;5062220;28;20063;-46
2023/05/17 07:00:38;;;;;;;14.02;4.03;;;;;;;;;;5064927;28;20049;-47
2023/05/17 07:03:05;;;;;;;15.32;4.05;;;;;;;;;;5061449;28;20048;-47
2023/05/17 07:05:32;;;;;;;11.50;3.80;;;;;;;;;;5063931;28;20060;-47
2023/05/17 07:07:59;;;;;;;17.23;3.78;;;;;;;;;;5058134;28;20481;-58
2023/05/17 07:10:26;;;;;;;10.40;3.20;;;;;;;;;;5063232;28;20064;-58
2023/05/17 07:12:53;;;;;;;9.63;3.50;;;;;;;;;;5069105;28;20060;-58
2023/05/17 07:15:21;;;;;;;14.63;3.72;;;;;;;;;;5064862;28;20068;-57
2023/05/17 07:17:48;;;;;;;9.32;3.08;;;;;;;;;;5063864;28;20485;-58
2023/05/17 07:20:15;;;;;;;10.45;3.00;;;;;;;;;;5067111;28;20072;-58
2023/05/17 07:22:42;;;;;;;10.40;3.13;;;;;;;;;;5065577;28;20064;-58
2023/05/17 07:25:09;;;;;;;7.93;2.38;;;;;;;;;;5067774;28;20056;-58
2023/05/17 07:27:36;;;;;;;9.32;2.90;;;;;;;;;;5062999;28;20072;-57
2023/05/17 07:30:04;;;;;;;10.55;2.88;;;;;;;;;;5065623;28;20044;-57
2023/05/17 07:32:32;;;;;;;11.07;2.60;;;;;;;;;;5061608;28;20056;-58
2023/05/17 07:35:00;;;;;;;8.02;2.30;;;;;;;;;;5064333;28;20052;-57
2023/05/17 07:37:27;;;;;;;9.53;2.50;;;;;;;;;;5061648;28;20433;-58
2023/05/17 07:39:54;;;;;;;8.75;2.50;;;;;;;;;;5060656;28;20071;-58
2023/05/17 07:42:21;;;;;;;7.68;2.65;;;;;;;;;;5068331;28;20068;-57
2023/05/17 07:44:48;;;;;;;7.93;2.42;;;;;;;;;;5067724;28;20053;-57
2023/05/17 07:47:15;;;;;;;8.68;2.13;;;;;;;;;;5061933;28;20667;-57
2023/05/17 07:49:43;;;;;;;7.80;2.40;;;;;;;;;;5059999;28;20059;-60
2023/05/17 07:52:10;;;;;;;9.23;3.05;;;;;;;;;;5065860;28;20055;-61
2023/05/17 07:54:37;;;;;;;7.40;2.25;;;;;;;;;;5062337;28;20077;-60
2023/05/17 07:57:04;;;;;;;7.60;2.80;;;;;;;;;;5063041;28;20064;-60
2023/05/17 07:59:31;;;;;;;9.30;2.97;;;;;;;;;;5061076;28;20060;-60
2023/05/17 08:01:58;;;;;;;8.23;2.97;;;;;;;;;;5058062;28;20049;-60
2023/05/17 08:04:25;;;;;;;11.07;2.65;;;;;;;;;;5063336;28;20511;-61
2023/05/17 08:06:54;;;;;;;7.75;2.50;;;;;;;;;;5062804;28;20079;-60
2023/05/17 08:09:21;;;;;;;6.65;2.78;;;;;;;;;;5062374;28;20067;-61
2023/05/17 08:11:48;;;;;;;8.05;2.17;;;;;;;;;;5058982;28;20096;-60
2023/05/17 08:14:15;;;;;;;9.57;2.70;;;;;;;;;;5067373;28;20064;-60
2023/05/17 08:16:42;;;;;;;6.03;2.30;;;;;;;;;;5059738;28;20060;-60
2023/05/17 08:19:11;;;;;;;8.82;3.22;;;;;;;;;;5065673;28;20425;-60
2023/05/17 08:21:38;;;;;;;7.03;2.95;;;;;;;;;;5057003;28;20045;-60
2023/05/17 08:24:07;;;;;;;9.50;3.17;;;;;;;;;;5062959;28;20413;-60
2023/05/17 08:26:34;;;;;;;6.10;2.30;;;;;;;;;;5062602;28;20044;-60
2023/05/17 08:29:01;;;;;;;7.72;2.70;;;;;;;;;;5061535;28;20053;-60
2023/05/17 08:31:28;;;;;;;7.38;2.50;;;;;;;;;;5058952;28;20049;-61
2023/05/17 08:33:55;;;;;;;5.10;2.15;;;;;;;;;;5067822;28;20056;-61
2023/05/17 08:36:22;;;;;;;5.40;2.35;;;;;;;;;;5061750;28;20076;-61
2023/05/17 08:38:49;;;;;;;6.90;2.67;;;;;;;;;;5063068;28;20057;-61
2023/05/17 08:41:17;;;;;;;6.75;2.63;;;;;;;;;;5061478;28;20067;-61
2023/05/17 08:43:44;;;;;;;6.97;2.20;;;;;;;;;;5062229;28;20055;-61
2023/05/17 08:46:12;;;;;;;6.97;2.22;;;;;;;;;;5059618;28;20482;-61
2023/05/17 08:48:40;;;;;;;5.25;1.92;;;;;;;;;;5059177;28;20383;-63
2023/05/17 08:51:07;;;;;;;9.90;2.55;;;;;;;;;;5063619;28;20510;-60
2023/05/17 08:53:35;;;;;;;6.72;2.28;;;;;;;;;;5066951;28;20064;-61
2023/05/17 08:56:03;;;;;;;7.07;2.30;;;;;;;;;;5067014;28;20048;-61
2023/05/17 08:58:33;;;;;;;6.78;2.53;;;;;;;;;;5062556;28;20179;-61
2023/05/17 09:01:01;;;;;;;5.32;2.67;;;;;;;;;;5060786;28;20052;-61
2023/05/17 09:03:29;;;;;;;6.63;2.65;;;;;;;;;;5062264;28;20413;-61
2023/05/17 09:05:57;;;;;;;6.95;2.63;;;;;;;;;;5057466;28;20513;-61
2023/05/17 09:08:24;;;;;;;7.78;3.25;;;;;;;;;;5064439;28;20060;-61
2023/05/17 09:10:51;;;;;;;6.28;2.95;;;;;;;;;;5071496;28;20045;-60
2023/05/17 09:13:17;;;;;;;6.95;2.13;;;;;;;;;;5070202;28;21434;-61
2023/05/17 09:15:47;;;;;;;6.20;2.05;;;;;;;;;;5062504;28;20052;-60
2023/05/17 09:18:15;;;;;;;5.25;2.05;;;;;;;;;;5069142;28;20057;-60
2023/05/17 09:20:42;;;;;;;4.40;1.88;;;;;;;;;;5070451;28;20059;-60
2023/05/17 09:23:12;;;;;;;5.82;2.20;;;;;;;;;;5070008;28;20060;-60
2023/05/17 09:25:39;;;;;;;6.32;2.75;;;;;;;;;;5064954;28;20052;-60
2023/05/17 09:28:07;;;;;;;6.68;2.65;;;;;;;;;;5066617;28;20063;-60
2023/05/17 09:30:36;;;;;;;8.75;2.70;;;;;;;;;;5063417;28;20482;-60
2023/05/17 09:33:08;;;;;;;5.20;2.05;;;;;;;;;;5064227;28;20615;-60
2023/05/17 09:35:35;;;;;;;6.13;2.35;;;;;;;;;;5057570;28;20040;-60
2023/05/17 09:38:08;;;;;;;4.95;1.75;;;;;;;;;;5062647;28;20056;-59
2023/05/17 09:40:38;;;;;;;15.43;5.28;;;;;;;;;;5063921;28;20520;-59
2023/05/17 09:43:05;;;;;;;6.38;2.30;;;;;;;;;;5063523;28;20432;-61
2023/05/17 09:45:31;;;;;;;5.47;2.00;;;;;;;;;;5061002;28;20060;-60
2023/05/17 09:48:10;;;;;;;6.78;2.38;;;;;;;;;;5065659;28;20048;-61
2023/05/17 09:50:46;;;;;;;6.43;2.70;;;;;;;;;;5060949;28;20067;-61
2023/05/17 09:53:25;;;;;;;7.05;2.13;;;;;;;;;;5062630;28;20075;-61
2023/05/17 09:55:52;;;;;;;5.78;2.05;;;;;;;;;;5065408;28;20056;-61
2023/05/17 09:58:19;;;;;;;7.63;2.55;;;;;;;;;;5063362;28;20060;-61
2023/05/17 10:00:50;;;;;;;3.85;1.73;;;;;;;;;;5061888;28;20048;-61
2023/05/17 10:03:17;;;;;;;6.38;2.28;;;;;;;;;;5064465;28;20060;-62
2023/05/17 10:05:46;;;;;;;8.23;3.80;;;;;;;;;;5062140;28;20413;-62
2023/05/17 10:08:14;;;;;;;8.27;2.92;;;;;;;;;;5066397;28;20407;-61
2023/05/17 10:10:41;;;;;;;5.80;2.65;;;;;;;;;;5064109;28;20048;-59
2023/05/17 10:13:09;;;;;;;6.43;2.75;;;;;;;;;;5060193;28;20060;-58
2023/05/17 10:15:37;;;;;;;5.85;2.33;;;;;;;;;;5059810;28;20057;-59
2023/05/17 10:18:06;;;;;;;6.63;2.38;;;;;;;;;;5066596;28;20055;-58
2023/05/17 10:20:33;;;;;;;5.22;2.13;;;;;;;;;;5065870;28;20049;-58
2023/05/17 10:23:04;;;;;;;8.80;2.28;;;;;;;;;;5063446;28;20077;-59
2023/05/17 10:25:31;;;;;;;5.95;1.98;;;;;;;;;;5063298;28;20055;-59
2023/05/17 10:27:58;;;;;;;5.25;2.03;;;;;;;;;;5059451;28;20048;-58
2023/05/17 10:30:26;;;;;;;8.38;2.13;;;;;;;;;;5066488;28;20056;-58
2023/05/17 10:32:53;;;;;;;5.65;1.85;;;;;;;;;;5070412;28;20063;-58
2023/05/17 10:35:20;;;;;;;6.38;2.30;;;;;;;;;;5058930;28;20063;-58
2023/05/17 10:37:47;;;;;;;5.88;1.90;;;;;;;;;;5066574;28;20060;-58
2023/05/17 10:40:16;;;;;;;7.13;2.25;;;;;;;;;;5069302;28;20056;-59
2023/05/17 10:42:45;;;;;;;5.95;2.33;;;;;;;;;;5067169;28;20135;-59
2023/05/17 10:45:14;;;;;;;5.43;2.33;;;;;;;;;;5066194;28;20052;-60
2023/05/17 10:47:41;;;;;;;5.88;2.30;;;;;;;;;;5064497;28;20056;-59
2023/05/17 10:50:10;;;;;;;6.97;2.08;;;;;;;;;;5069330;28;20060;-59
2023/05/17 10:52:38;;;;;;;4.40;1.92;;;;;;;;;;5067125;28;20056;-59
2023/05/17 10:55:07;;;;;;;5.72;2.28;;;;;;;;;;5069921;28;20049;-59
2023/05/17 10:57:36;;;;;;;4.53;2.00;;;;;;;;;;5073561;28;20048;-59
2023/05/17 11:00:06;;;;;;;8.05;2.40;;;;;;;;;;5060098;28;20048;-59
2023/05/17 11:02:33;;;;;;;15.02;3.00;;;;;;;;;;5054359;28;20057;-58
2023/05/17 11:05:01;;;;;;;4.78;2.35;;;;;;;;;;5054381;28;20045;-58
2023/05/17 11:07:30;;;;;;;6.78;2.67;;;;;;;;;;5054238;28;20060;-59
2023/05/17 11:10:04;;;;;;;4.88;2.10;;;;;;;;;;5054024;28;20052;-59
2023/05/17 11:12:33;;;;;;;5.88;2.17;;;;;;;;;;5053986;28;20080;-59
2023/05/17 11:15:01;;;;;;;5.45;2.20;;;;;;;;;;5060095;28;20047;-60
2023/05/17 11:17:33;;;;;;;5.68;2.22;;;;;;;;;;5060848;28;20059;-59
2023/05/17 11:20:09;;;;;;;6.78;2.35;;;;;;;;;;5067226;28;20049;-58
2023/05/17 11:22:37;;;;;;;6.55;2.17;;;;;;;;;;5055375;28;20469;-59
2023/05/17 11:25:08;;;;;;;3.38;1.60;;;;;;;;;;5060429;28;20049;-58
2023/05/17 11:27:38;;;;;;;4.70;1.80;;;;;;;;;;5058016;28;20409;-59
2023/05/17 11:30:16;;;;;;;6.35;2.08;;;;;;;;;;5059564;28;20747;-59
2023/05/17 11:32:46;;;;;;;6.03;1.95;;;;;;;;;;5061777;28;20052;-58
2023/05/17 11:35:13;;;;;;;4.82;1.95;;;;;;;;;;5054571;28;20413;-58
2023/05/17 11:37:43;;;;;;;5.13;1.95;;;;;;;;;;5059968;28;20052;-58
2023/05/17 11:40:11;;;;;;;4.45;2.40;;;;;;;;;;5062585;28;20059;-58
2023/05/17 11:42:39;;;;;;;4.72;1.70;;;;;;;;;;5059344;28;20063;-58
2023/05/17 11:45:06;;;;;;;8.40;2.25;;;;;;;;;;5058523;28;20414;-59
2023/05/17 11:47:38;;;;;;;6.40;2.20;;;;;;;;;;5064224;28;20060;-58
2023/05/17 11:50:06;;;;;;;4.65;1.90;;;;;;;;;;5061518;28;20052;-59
2023/05/17 11:52:34;;;;;;;4.70;1.95;;;;;;;;;;5061977;28;20053;-59
2023/05/17 11:55:01;;;;;;;5.82;2.30;;;;;;;;;;5060601;28;20048;-59
2023/05/17 11:57:29;;;;;;;4.82;1.92;;;;;;;;;;5058801;28;20049;-59
2023/05/17 11:59:59;;;;;;;5.10;2.00;;;;;;;;;;5059239;28;20063;-59
2023/05/17 12:02:27;;;;;;;4.35;2.05;;;;;;;;;;5056485;28;20048;-59
2023/05/17 12:04:55;;;;;;;3.80;1.83;;;;;;;;;;5060746;28;20516;-59
2023/05/17 12:07:22;;;;;;;5.63;2.15;;;;;;;;;;5056743;28;20052;-59
2023/05/17 12:09:49;;;;;;;5.70;1.88;;;;;;;;;;5055796;28;20063;-59
2023/05/17 12:12:16;;;;;;;6.20;2.03;;;;;;;;;;5061984;28;20048;-59
2023/05/17 12:14:43;;;;;;;6.78;2.17;;;;;;;;;;5062401;28;20048;-58
2023/05/17 12:17:12;;;;;;;6.57;1.98;;;;;;;;;;5057386;28;20528;-58
2023/05/17 12:19:39;;;;;;;5.45;2.20;;;;;;;;;;5062251;28;20053;-60
2023/05/17 12:22:11;;;;;;;6.13;1.92;;;;;;;;;;5062715;28;20485;-58
2023/05/17 12:24:38;;;;;;;5.40;2.13;;;;;;;;;;5058675;28;20063;-58
2023/05/17 12:27:05;;;;;;;6.80;2.08;;;;;;;;;;5057063;28;20044;-60
2023/05/17 12:29:32;;;;;;;4.15;1.58;;;;;;;;;;5059550;28;20052;-60
2023/05/17 12:31:59;;;;;;;4.97;2.05;;;;;;;;;;5061345;28;20512;-58
2023/05/17 12:34:26;;;;;;;4.45;1.98;;;;;;;;;;5062305;28;20063;-58
2023/05/17 12:36:53;;;;;;;5.55;2.10;;;;;;;;;;5063002;28;20083;-59
2023/05/17 12:39:23;;;;;;;5.28;2.25;;;;;;;;;;5056084;28;20456;-59
2023/05/17 12:41:49;;;;;;;5.15;1.63;;;;;;;;;;5054928;28;20060;-59
2023/05/17 12:44:17;;;;;;;6.60;2.03;;;;;;;;;;5057248;28;20469;-59
2023/05/17 12:46:44;;;;;;;5.15;2.13;;;;;;;;;;5054912;28;20047;-59
2023/05/17 12:49:11;;;;;;;4.57;1.63;;;;;;;;;;5060998;28;20052;-60
2023/05/17 12:51:43;;;;;;;7.35;2.22;;;;;;;;;;5057199;28;20057;-60
2023/05/17 12:54:10;;;;;;;4.07;1.77;;;;;;;;;;5061206;28;20600;-59
2023/05/17 12:56:41;;;;;;;4.32;1.90;;;;;;;;;;5057999;28;20049;-60
2023/05/17 12:59:11;;;;;;;5.55;1.85;;;;;;;;;;5058599;28;20055;-60
2023/05/17 13:01:39;;;;;;;7.03;2.10;;;;;;;;;;5060822;28;20059;-60
2023/05/17 13:04:06;;;;;;;5.88;2.58;;;;;;;;;;5060542;28;20045;-60
2023/05/17 13:06:43;;;;;;;5.22;2.00;;;;;;;;;;5060038;28;20045;-60
2023/05/17 13:09:10;;;;;;;5.00;2.10;;;;;;;;;;5059358;28;20063;-60
2023/05/17 13:11:40;;;;;;;6.45;2.35;;;;;;;;;;5057091;28;20060;-58
2023/05/17 13:14:06;;;;;;;5.00;1.80;;;;;;;;;;5059091;28;20060;-59
2023/05/17 13:16:34;;;;;;;4.03;1.80;;;;;;;;;;5057673;28;20509;-58
2023/05/17 13:19:03;;;;;;;5.78;2.08;;;;;;;;;;5058715;28;20052;-59
2023/05/17 13:21:30;;;;;;;6.07;1.92;;;;;;;;;;5059030;28;20056;-59
2023/05/17 13:23:57;;;;;;;4.72;2.22;;;;;;;;;;5061866;28;20361;-58
2023/05/17 13:26:25;;;;;;;5.32;1.88;;;;;;;;;;5062395;28;20072;-59
2023/05/17 13:28:53;;;;;;;6.90;2.10;;;;;;;;;;5058720;28;20138;-58
2023/05/17 13:31:20;;;;;;;5.30;2.00;;;;;;;;;;5058325;28;20060;-61
2023/05/17 13:33:48;;;;;;;6.03;1.88;;;;;;;;;;5058944;28;20500;-61
2023/05/17 13:36:15;;;;;;;6.93;1.70;;;;;;;;;;5060102;28;20429;-61
2023/05/17 13:38:42;;;;;;;3.85;1.60;;;;;;;;;;5061263;28;20367;-61
2023/05/17 13:41:10;;;;;;;5.57;1.73;;;;;;;;;;5063199;28;20059;-61
2023/05/17 13:43:37;;;;;;;4.25;1.63;;;;;;;;;;5061872;28;20052;-61
2023/05/17 13:46:05;;;;;;;4.28;1.80;;;;;;;;;;5058169;28;20055;-61
2023/05/17 13:48:32;;;;;;;6.13;1.65;;;;;;;;;;5058614;28;20049;-61
2023/05/17 13:50:59;;;;;;;4.88;1.73;;;;;;;;;;5057429;28;20057;-61
2023/05/17 13:53:26;;;;;;;4.35;1.80;;;;;;;;;;5058849;28;20057;-61
2023/05/17 13:55:52;;;;;;;6.35;1.83;;;;;;;;;;5059176;28;20424;-61
2023/05/17 13:58:20;;;;;;;6.38;2.00;;;;;;;;;;5064896;28;20048;-61
2023/05/17 14:00:46;;;;;;;6.05;2.08;;;;;;;;;;5058332;28;20048;-61
2023/05/17 14:03:15;;;;;;;4.25;1.80;;;;;;;;;;5059553;28;20053;-61
2023/05/17 14:05:42;;;;;;;5.90;2.00;;;;;;;;;;5062599;28;20044;-61
2023/05/17 14:08:09;;;;;;;5.88;2.30;;;;;;;;;;5062789;28;20501;-62
2023/05/17 14:10:36;;;;;;;5.63;2.22;;;;;;;;;;5063713;28;20059;-62
2023/05/17 14:13:03;;;;;;;6.40;2.22;;;;;;;;;;5060980;28;20426;-62
2023/05/17 14:15:31;;;;;;;4.78;1.90;;;;;;;;;;5065723;28;20049;-62
2023/05/17 14:17:58;;;;;;;5.82;1.70;;;;;;;;;;5061390;28;20375;-61
2023/05/17 14:20:26;;;;;;;6.47;2.08;;;;;;;;;;5062844;28;20056;-62
2023/05/17 14:22:53;;;;;;;6.13;2.08;;;;;;;;;;5060846;28;20064;-61
2023/05/17 14:25:20;;;;;;;5.75;1.80;;;;;;;;;;5061751;28;20060;-60
2023/05/17 14:27:46;;;;;;;4.43;1.90;;;;;;;;;;5059588;28;20041;-60
2023/05/17 14:30:13;;;;;;;4.28;1.83;;;;;;;;;;5060634;28;20426;-61
2023/05/17 14:32:40;;;;;;;5.75;1.77;;;;;;;;;;5061503;28;20413;-61
2023/05/17 14:35:08;;;;;;;7.05;2.20;;;;;;;;;;5063474;28;20048;-62
2023/05/17 14:37:36;;;;;;;7.50;2.13;;;;;;;;;;5064863;28;20378;-62
2023/05/17 14:40:04;;;;;;;8.00;2.50;;;;;;;;;;5062833;28;20507;-62
2023/05/17 14:42:30;;;;;;;5.20;2.15;;;;;;;;;;5063451;28;20049;-61
2023/05/17 14:44:57;;;;;;;5.90;2.00;;;;;;;;;;5066082;28;20056;-61